sensor_id;sensor_type;location;lat;lon;timestamp;pressure;altitude;pressure_sealevel;temperature;humidity
62634;BME280;48704;50.534;6.442;2022-11-21T00:00:40;94497.88;;;3.40;100.00
62634;BME280;48704;50.534;6.442;2022-11-21T00:03:08;94484.41;;;3.42;100.00
62634;BME280;48704;50.534;6.442;2022-11-21T00:05:38;94483.50;;;3.45;100.00
62634;BME280;48704;50.534;6.442;2022-11-21T00:08:03;94502.91;;;3.41;100.00
62634;BME280;48704;50.534;6.442;2022-11-21T00:10:29;94485.94;;;3.43;100.00
62634;BME280;48704;50.534;6.442;2022-11-21T00:12:56;94478.59;;;3.40;100.00
62634;BME280;48704;50.534;6.442;2022-11-21T00:15:22;94488.72;;;3.33;100.00
62634;BME280;48704;50.534;6.442;2022-11-21T00:17:48;94489.63;;;3.30;100.00
62634;BME280;48704;50.534;6.442;2022-11-21T00:20:13;94492.22;;;3.25;100.00
62634;BME280;48704;50.534;6.442;2022-11-21T00:22:38;94478.75;;;3.27;100.00
62634;BME280;48704;50.534;6.442;2022-11-21T00:25:04;94488.38;;;3.22;100.00
62634;BME280;48704;50.534;6.442;2022-11-21T00:27:29;94484.25;;;3.18;100.00
62634;BME280;48704;50.534;6.442;2022-11-21T00:29:55;94491.09;;;3.13;100.00
62634;BME280;48704;50.534;6.442;2022-11-21T00:32:20;94476.75;;;3.18;100.00
62634;BME280;48704;50.534;6.442;2022-11-21T00:34:45;94479.81;;;3.20;100.00
62634;BME280;48704;50.534;6.442;2022-11-21T00:37:11;94478.28;;;3.19;100.00
62634;BME280;48704;50.534;6.442;2022-11-21T00:39:36;94479.19;;;3.16;100.00
62634;BME280;48704;50.534;6.442;2022-11-21T00:42:01;94476.75;;;3.18;100.00
62634;BME280;48704;50.534;6.442;2022-11-21T00:44:26;94472.16;;;3.15;100.00
62634;BME280;48704;50.534;6.442;2022-11-21T00:46:52;94476.75;;;3.18;100.00
62634;BME280;48704;50.534;6.442;2022-11-21T00:49:17;94479.81;;;3.20;100.00
62634;BME280;48704;50.534;6.442;2022-11-21T00:51:42;94468.50;;;3.18;100.00
62634;BME280;48704;50.534;6.442;2022-11-21T00:54:08;94471.84;;;3.22;100.00
62634;BME280;48704;50.534;6.442;2022-11-21T00:56:33;94475.69;;;3.25;100.00
62634;BME280;48704;50.534;6.442;2022-11-21T00:58:58;94462.38;;;3.23;100.00
62634;BME280;48704;50.534;6.442;2022-11-21T01:01:24;94471.56;;;3.20;100.00
62634;BME280;48704;50.534;6.442;2022-11-21T01:03:49;94467.13;;;3.23;100.00
62634;BME280;48704;50.534;6.442;2022-11-21T01:06:14;94471.38;;;3.15;100.00
62634;BME280;48704;50.534;6.442;2022-11-21T01:08:42;94465.72;;;3.09;100.00
62634;BME280;48704;50.534;6.442;2022-11-21T01:11:13;94461.13;;;3.06;100.00
62634;BME280;48704;50.534;6.442;2022-11-21T01:13:39;94460.53;;;3.11;100.00
62634;BME280;48704;50.534;6.442;2022-11-21T01:16:07;94457.47;;;3.09;100.00
62634;BME280;48704;50.534;6.442;2022-11-21T01:18:33;94458.69;;;3.08;100.00
62634;BME280;48704;50.534;6.442;2022-11-21T01:21:01;94456.38;;;3.07;100.00
62634;BME280;48704;50.534;6.442;2022-11-21T01:23:27;94451.63;;;3.07;100.00
62634;BME280;48704;50.534;6.442;2022-11-21T01:25:52;94472.44;;;3.08;100.00
62634;BME280;48704;50.534;6.442;2022-11-21T01:28:17;94464.50;;;3.10;100.00
62634;BME280;48704;50.534;6.442;2022-11-21T01:30:43;94471.53;;;3.11;100.00
62634;BME280;48704;50.534;6.442;2022-11-21T01:33:08;94473.97;;;3.09;100.00
62634;BME280;48704;50.534;6.442;2022-11-21T01:35:33;94464.16;;;2.99;100.00
62634;BME280;48704;50.534;6.442;2022-11-21T01:37:58;94472.44;;;3.08;100.00
62634;BME280;48704;50.534;6.442;2022-11-21T01:40:24;94466.94;;;3.08;100.00
62634;BME280;48704;50.534;6.442;2022-11-21T01:42:57;94453.78;;;3.03;100.00
62634;BME280;48704;50.534;6.442;2022-11-21T01:53:35;94465.38;;;2.89;100.00
62634;BME280;48704;50.534;6.442;2022-11-21T01:56:02;94466.28;;;2.86;100.00
62634;BME280;48704;50.534;6.442;2022-11-21T01:58:29;94453.00;;;2.84;100.00
62634;BME280;48704;50.534;6.442;2022-11-21T02:00:56;94458.63;;;2.81;100.00
62634;BME280;48704;50.534;6.442;2022-11-21T02:03:23;94460.78;;;2.86;100.00
62634;BME280;48704;50.534;6.442;2022-11-21T02:05:51;94467.06;;;2.86;100.00
62634;BME280;48704;50.534;6.442;2022-11-21T02:08:20;94478.06;;;2.86;100.00
62634;BME280;48704;50.534;6.442;2022-11-21T02:11:10;94461.69;;;2.83;100.00
62634;BME280;48704;50.534;6.442;2022-11-21T02:13:36;94453.94;;;2.90;100.00
62634;BME280;48704;50.534;6.442;2022-11-21T02:16:02;94468.44;;;2.91;100.00
62634;BME280;48704;50.534;6.442;2022-11-21T02:18:27;94464.78;;;2.94;100.00
62634;BME280;48704;50.534;6.442;2022-11-21T02:21:04;94461.13;;;2.97;100.00
62634;BME280;48704;50.534;6.442;2022-11-21T02:23:53;94454.09;;;2.96;100.00
62634;BME280;48704;50.534;6.442;2022-11-21T02:26:21;94457.09;;;2.80;100.00
62634;BME280;48704;50.534;6.442;2022-11-21T02:28:47;94451.03;;;2.94;100.00
62634;BME280;48704;50.534;6.442;2022-11-21T02:31:12;94448.59;;;2.96;100.00
62634;BME280;48704;50.534;6.442;2022-11-21T02:33:37;94448.59;;;2.96;100.00
62634;BME280;48704;50.534;6.442;2022-11-21T02:36:03;94451.94;;;2.91;100.00
62634;BME280;48704;50.534;6.442;2022-11-21T02:38:31;94444.63;;;2.97;100.00
62634;BME280;48704;50.534;6.442;2022-11-21T02:41:03;94435.88;;;2.98;100.00
62634;BME280;48704;50.534;6.442;2022-11-21T02:43:50;94452.25;;;3.02;100.00
62634;BME280;48704;50.534;6.442;2022-11-21T02:46:16;94460.50;;;3.02;100.00
62634;BME280;48704;50.534;6.442;2022-11-21T02:48:42;94460.19;;;3.00;100.00
62634;BME280;48704;50.534;6.442;2022-11-21T02:51:07;94455.31;;;3.04;100.00
62634;BME280;48704;50.534;6.442;2022-11-21T02:53:33;94459.28;;;3.03;100.00
62634;BME280;48704;50.534;6.442;2022-11-21T02:55:58;94452.88;;;3.06;100.00
62634;BME280;48704;50.534;6.442;2022-11-21T02:58:23;94459.88;;;2.98;100.00
62634;BME280;48704;50.534;6.442;2022-11-21T03:00:49;94462.03;;;3.03;100.00
62634;BME280;48704;50.534;6.442;2022-11-21T03:03:14;94470.28;;;2.94;100.00
62634;BME280;48704;50.534;6.442;2022-11-21T03:05:40;94468.44;;;2.91;100.00
62634;BME280;48704;50.534;6.442;2022-11-21T03:08:05;94463.53;;;2.86;100.00
62634;BME280;48704;50.534;6.442;2022-11-21T03:10:31;94463.81;;;2.79;100.00
62634;BME280;48704;50.534;6.442;2022-11-21T03:12:57;94466.13;;;2.80;100.00
62634;BME280;48704;50.534;6.442;2022-11-21T03:15:27;94469.03;;;2.86;100.00
62634;BME280;48704;50.534;6.442;2022-11-21T03:17:53;94467.06;;;2.86;100.00
62634;BME280;48704;50.534;6.442;2022-11-21T03:20:18;94454.38;;;2.89;100.00
62634;BME280;48704;50.534;6.442;2022-11-21T03:22:44;94458.50;;;2.84;100.00
62634;BME280;48704;50.534;6.442;2022-11-21T03:25:09;94451.28;;;2.78;100.00
62634;BME280;48704;50.534;6.442;2022-11-21T03:27:34;94451.59;;;2.80;100.00
62634;BME280;48704;50.534;6.442;2022-11-21T03:30:00;94461.06;;;2.79;100.00
62634;BME280;48704;50.534;6.442;2022-11-21T03:32:25;94456.78;;;2.78;100.00
62634;BME280;48704;50.534;6.442;2022-11-21T03:34:50;94454.22;;;2.83;100.00
62634;BME280;48704;50.534;6.442;2022-11-21T03:37:16;94457.69;;;2.75;100.00
62634;BME280;48704;50.534;6.442;2022-11-21T03:39:41;94446.28;;;2.85;100.00
62634;BME280;48704;50.534;6.442;2022-11-21T03:42:06;94449.78;;;2.86;100.00
62634;BME280;48704;50.534;6.442;2022-11-21T03:44:32;94453.47;;;2.92;100.00
62634;BME280;48704;50.534;6.442;2022-11-21T03:46:57;94448.59;;;2.96;100.00
62634;BME280;48704;50.534;6.442;2022-11-21T03:49:23;94443.09;;;2.96;100.00
62634;BME280;48704;50.534;6.442;2022-11-21T03:51:48;94438.03;;;2.94;100.00
62634;BME280;48704;50.534;6.442;2022-11-21T03:54:13;94442.16;;;2.99;100.00
62634;BME280;48704;50.534;6.442;2022-11-21T03:56:39;94445.22;;;3.01;100.00
62634;BME280;48704;50.534;6.442;2022-11-21T03:59:04;94441.22;;;3.02;100.00
62634;BME280;48704;50.534;6.442;2022-11-21T04:01:30;94438.16;;;3.00;100.00
62634;BME280;48704;50.534;6.442;2022-11-21T04:03:55;94444.91;;;3.08;100.00
62634;BME280;48704;50.534;6.442;2022-11-21T04:06:21;94435.59;;;3.06;100.00
62634;BME280;48704;50.534;6.442;2022-11-21T04:08:47;94437.88;;;2.98;100.00
62634;BME280;48704;50.534;6.442;2022-11-21T04:11:13;94442.00;;;3.02;100.00
62634;BME280;48704;50.534;6.442;2022-11-21T04:13:38;94438.78;;;3.04;100.00
62634;BME280;48704;50.534;6.442;2022-11-21T04:16:04;94431.91;;;3.09;100.00
62634;BME280;48704;50.534;6.442;2022-11-21T04:18:30;94437.88;;;3.07;100.00
62634;BME280;48704;50.534;6.442;2022-11-21T04:21:03;94441.41;;;3.08;100.00
62634;BME280;48704;50.534;6.442;2022-11-21T04:23:29;94440.63;;;3.07;100.00
62634;BME280;48704;50.534;6.442;2022-11-21T04:25:54;94440.31;;;3.05;100.00
62634;BME280;48704;50.534;6.442;2022-11-21T04:28:20;94431.75;;;3.03;100.00
62634;BME280;48704;50.534;6.442;2022-11-21T04:30:46;94442.75;;;3.03;100.00
62634;BME280;48704;50.534;6.442;2022-11-21T04:33:12;94446.44;;;3.09;100.00
62634;BME280;48704;50.534;6.442;2022-11-21T04:35:37;94438.19;;;3.09;100.00
62634;BME280;48704;50.534;6.442;2022-11-21T04:38:03;94448.28;;;3.03;100.00
62634;BME280;48704;50.534;6.442;2022-11-21T04:40:28;94452.25;;;3.02;100.00
62634;BME280;48704;50.534;6.442;2022-11-21T04:42:53;94441.84;;;3.06;100.00
62634;BME280;48704;50.534;6.442;2022-11-21T04:45:19;94442.47;;;2.92;100.00
62634;BME280;48704;50.534;6.442;2022-11-21T04:47:45;94433.28;;;2.86;100.00
62634;BME280;48704;50.534;6.442;2022-11-21T04:50:13;94443.38;;;2.89;100.00
62634;BME280;48704;50.534;6.442;2022-11-21T04:52:39;94438.78;;;2.86;100.00
62634;BME280;48704;50.534;6.442;2022-11-21T04:55:05;94437.59;;;2.96;100.00
62634;BME280;48704;50.534;6.442;2022-11-21T04:57:32;94433.00;;;2.93;100.00
62634;BME280;48704;50.534;6.442;2022-11-21T04:59:57;94436.97;;;2.92;100.00
62634;BME280;48704;50.534;6.442;2022-11-21T05:02:23;94437.59;;;2.96;100.00
62634;BME280;48704;50.534;6.442;2022-11-21T05:04:48;94432.84;;;2.96;100.00
62634;BME280;48704;50.534;6.442;2022-11-21T05:07:14;94436.66;;;2.99;100.00
62634;BME280;48704;50.534;6.442;2022-11-21T05:09:40;94433.75;;;2.93;100.00
62634;BME280;48704;50.534;6.442;2022-11-21T05:12:05;94428.41;;;2.90;100.00
62634;BME280;48704;50.534;6.442;2022-11-21T05:14:49;94447.66;;;2.99;100.00
62634;BME280;48704;50.534;6.442;2022-11-21T05:17:14;94435.13;;;2.98;100.00
62634;BME280;48704;50.534;6.442;2022-11-21T05:19:40;94428.09;;;2.97;100.00
62634;BME280;48704;50.534;6.442;2022-11-21T05:22:05;94433.59;;;2.97;100.00
62634;BME280;48704;50.534;6.442;2022-11-21T05:24:30;94423.50;;;2.94;100.00
62634;BME280;48704;50.534;6.442;2022-11-21T05:26:56;94423.50;;;2.94;100.00
62634;BME280;48704;50.534;6.442;2022-11-21T05:29:21;94421.97;;;2.93;100.00
62634;BME280;48704;50.534;6.442;2022-11-21T05:31:46;94420.91;;;2.99;100.00
62634;BME280;48704;50.534;6.442;2022-11-21T05:34:12;94420.44;;;2.92;100.00
62634;BME280;48704;50.534;6.442;2022-11-21T05:36:37;94416.94;;;3.00;100.00
62634;BME280;48704;50.534;6.442;2022-11-21T05:39:03;94418.59;;;2.98;100.00
62634;BME280;48704;50.534;6.442;2022-11-21T05:41:28;94410.06;;;2.96;100.00
62634;BME280;48704;50.534;6.442;2022-11-21T05:43:53;94415.69;;;3.01;100.00
62634;BME280;48704;50.534;6.442;2022-11-21T05:46:21;94413.88;;;2.98;100.00
62634;BME280;48704;50.534;6.442;2022-11-21T05:48:47;94415.56;;;2.96;100.00
62634;BME280;48704;50.534;6.442;2022-11-21T05:51:13;94418.00;;;2.94;100.00
62634;BME280;48704;50.534;6.442;2022-11-21T05:53:39;94412.19;;;2.92;100.00
62634;BME280;48704;50.534;6.442;2022-11-21T05:56:06;94414.63;;;2.90;100.00
62634;BME280;48704;50.534;6.442;2022-11-21T05:58:32;94409.75;;;2.85;100.00
62634;BME280;48704;50.534;6.442;2022-11-21T06:00:58;94411.13;;;2.89;100.00
62634;BME280;48704;50.534;6.442;2022-11-21T06:03:25;94412.19;;;2.83;100.00
62634;BME280;48704;50.534;6.442;2022-11-21T06:06:12;94403.63;;;2.81;100.00
62634;BME280;48704;50.534;6.442;2022-11-21T06:08:43;94413.09;;;2.80;100.00
62634;BME280;48704;50.534;6.442;2022-11-21T06:11:13;94403.63;;;2.81;100.00
62634;BME280;48704;50.534;6.442;2022-11-21T06:13:39;94401.16;;;2.83;100.00
62634;BME280;48704;50.534;6.442;2022-11-21T06:16:16;94398.56;;;2.79;100.00
62634;BME280;48704;50.534;6.442;2022-11-21T06:18:44;94400.50;;;2.60;100.00
62634;BME280;48704;50.534;6.442;2022-11-21T06:21:23;94398.84;;;2.72;100.00
62634;BME280;48704;50.534;6.442;2022-11-21T06:23:51;94400.22;;;2.67;100.00
62634;BME280;48704;50.534;6.442;2022-11-21T06:26:18;94392.91;;;2.74;100.00
62634;BME280;48704;50.534;6.442;2022-11-21T06:28:45;94383.72;;;2.77;100.00
62634;BME280;48704;50.534;6.442;2022-11-21T06:31:19;94396.28;;;2.78;100.00
62634;BME280;48704;50.534;6.442;2022-11-21T06:33:45;94397.50;;;2.77;100.00
62634;BME280;48704;50.534;6.442;2022-11-21T06:36:15;94393.81;;;2.71;100.00
62634;BME280;48704;50.534;6.442;2022-11-21T06:38:41;94385.88;;;2.73;100.00
62634;BME280;48704;50.534;6.442;2022-11-21T06:41:11;94396.88;;;2.73;100.00
62634;BME280;48704;50.534;6.442;2022-11-21T06:43:36;94391.06;;;2.71;100.00
62634;BME280;48704;50.534;6.442;2022-11-21T06:46:02;94404.81;;;2.71;100.00
62634;BME280;48704;50.534;6.442;2022-11-21T06:48:29;94408.31;;;2.71;100.00
62634;BME280;48704;50.534;6.442;2022-11-21T06:50:54;94406.03;;;2.69;100.00
62634;BME280;48704;50.534;6.442;2022-11-21T06:53:20;94408.16;;;2.65;100.00
62634;BME280;48704;50.534;6.442;2022-11-21T06:55:45;94408.28;;;2.62;100.00
62634;BME280;48704;50.534;6.442;2022-11-21T06:58:10;94406.00;;;2.60;100.00
62634;BME280;48704;50.534;6.442;2022-11-21T07:00:36;94400.50;;;2.60;100.00
62634;BME280;48704;50.534;6.442;2022-11-21T07:03:02;94399.59;;;2.63;100.00
62634;BME280;48704;50.534;6.442;2022-11-21T07:05:28;94398.06;;;2.62;100.00
62634;BME280;48704;50.534;6.442;2022-11-21T07:07:59;94399.91;;;2.65;100.00
62634;BME280;48704;50.534;6.442;2022-11-21T07:10:25;94395.00;;;2.60;100.00
62634;BME280;48704;50.534;6.442;2022-11-21T07:12:51;94393.19;;;2.66;100.00
62634;BME280;48704;50.534;6.442;2022-11-21T07:15:35;94393.31;;;2.63;100.00
62634;BME280;48704;50.534;6.442;2022-11-21T07:18:00;94387.38;;;2.64;100.00
62634;BME280;48704;50.534;6.442;2022-11-21T07:20:26;94402.66;;;2.65;100.00
62634;BME280;48704;50.534;6.442;2022-11-21T07:22:54;94392.13;;;2.73;100.00
62634;BME280;48704;50.534;6.442;2022-11-21T07:25:20;94389.84;;;2.72;100.00
62634;BME280;48704;50.534;6.442;2022-11-21T07:27:46;94394.56;;;2.71;100.00
62634;BME280;48704;50.534;6.442;2022-11-21T07:30:12;94396.56;;;2.71;100.00
62634;BME280;48704;50.534;6.442;2022-11-21T07:32:37;94394.44;;;2.75;100.00
62634;BME280;48704;50.534;6.442;2022-11-21T07:35:03;94397.50;;;2.77;100.00
62634;BME280;48704;50.534;6.442;2022-11-21T07:37:28;94399.78;;;2.78;100.00
62634;BME280;48704;50.534;6.442;2022-11-21T07:39:53;94390.63;;;2.90;100.00
62634;BME280;48704;50.534;6.442;2022-11-21T07:42:19;94393.84;;;2.80;100.00
62634;BME280;48704;50.534;6.442;2022-11-21T07:44:44;94395.50;;;2.77;100.00
62634;BME280;48704;50.534;6.442;2022-11-21T07:47:09;94391.06;;;2.80;100.00
62634;BME280;48704;50.534;6.442;2022-11-21T07:49:34;94387.06;;;2.62;100.00
62634;BME280;48704;50.534;6.442;2022-11-21T07:52:00;94387.25;;;2.77;100.00
62634;BME280;48704;50.534;6.442;2022-11-21T07:54:25;94394.00;;;2.85;100.00
62634;BME280;48704;50.534;6.442;2022-11-21T07:56:50;94393.84;;;2.89;100.00
62634;BME280;48704;50.534;6.442;2022-11-21T07:59:16;94391.41;;;2.91;100.00
62634;BME280;48704;50.534;6.442;2022-11-21T08:01:43;94393.25;;;2.94;100.00
62634;BME280;48704;50.534;6.442;2022-11-21T08:04:09;94392.31;;;3.06;100.00
62634;BME280;48704;50.534;6.442;2022-11-21T08:06:34;94384.97;;;3.12;100.00
62634;BME280;48704;50.534;6.442;2022-11-21T08:08:59;94377.34;;;3.07;100.00
62634;BME280;48704;50.534;6.442;2022-11-21T08:11:24;94382.22;;;3.03;100.00
62634;BME280;48704;50.534;6.442;2022-11-21T08:13:50;94384.66;;;3.01;100.00
62634;BME280;48704;50.534;6.442;2022-11-21T08:16:15;94390.16;;;3.01;100.00
62634;BME280;48704;50.534;6.442;2022-11-21T08:18:40;94377.63;;;3.00;100.00
62634;BME280;48704;50.534;6.442;2022-11-21T08:21:06;94375.50;;;3.04;100.00
62634;BME280;48704;50.534;6.442;2022-11-21T08:23:31;94380.84;;;2.98;100.00
62634;BME280;48704;50.534;6.442;2022-11-21T08:25:57;94375.19;;;3.02;100.00
62634;BME280;48704;50.534;6.442;2022-11-21T08:28:22;94382.22;;;3.03;100.00
62634;BME280;48704;50.534;6.442;2022-11-21T08:30:48;94383.59;;;3.08;100.00
62634;BME280;48704;50.534;6.442;2022-11-21T08:33:13;94381.94;;;2.92;100.00
62634;BME280;48704;50.534;6.442;2022-11-21T08:35:39;94379.16;;;2.83;100.00
62634;BME280;48704;50.534;6.442;2022-11-21T08:38:05;94380.41;;;2.91;100.00
62634;BME280;48704;50.534;6.442;2022-11-21T08:40:31;94378.88;;;2.90;100.00
62634;BME280;48704;50.534;6.442;2022-11-21T08:42:57;94381.91;;;3.01;100.00
62634;BME280;48704;50.534;6.442;2022-11-21T08:45:23;94377.03;;;3.14;100.00
62634;BME280;48704;50.534;6.442;2022-11-21T08:47:50;94379.19;;;3.19;100.00
62634;BME280;48704;50.534;6.442;2022-11-21T08:50:15;94366.03;;;2.96;100.00
62634;BME280;48704;50.534;6.442;2022-11-21T08:52:40;94364.50;;;2.95;100.00
62634;BME280;48704;50.534;6.442;2022-11-21T08:55:06;94351.50;;;3.05;100.00
62634;BME280;48704;50.534;6.442;2022-11-21T08:57:36;94349.22;;;3.21;100.00
62634;BME280;48704;50.534;6.442;2022-11-21T09:00:02;94344.31;;;3.25;100.00
62634;BME280;48704;50.534;6.442;2022-11-21T09:02:27;94346.91;;;3.20;100.00
62634;BME280;48704;50.534;6.442;2022-11-21T09:04:53;94333.59;;;3.18;100.00
62634;BME280;48704;50.534;6.442;2022-11-21T09:07:18;94343.41;;;3.10;100.00
62634;BME280;48704;50.534;6.442;2022-11-21T09:09:43;94345.53;;;3.15;100.00
62634;BME280;48704;50.534;6.442;2022-11-21T09:12:09;94340.34;;;3.26;100.00
62634;BME280;48704;50.534;6.442;2022-11-21T09:14:34;94325.03;;;3.16;100.00
62634;BME280;48704;50.534;6.442;2022-11-21T09:17:18;94325.97;;;3.04;100.00
62634;BME280;48704;50.534;6.442;2022-11-21T09:20:02;94325.81;;;3.08;100.00
62634;BME280;48704;50.534;6.442;2022-11-21T09:22:27;94320.75;;;3.06;100.00
62634;BME280;48704;50.534;6.442;2022-11-21T09:24:53;94312.50;;;3.15;100.00
62634;BME280;48704;50.534;6.442;2022-11-21T09:27:18;94323.06;;;3.17;100.00
62634;BME280;48704;50.534;6.442;2022-11-21T09:29:43;94319.84;;;3.27;100.00
62634;BME280;48704;50.534;6.442;2022-11-21T09:32:09;94324.59;;;3.27;100.00
62634;BME280;48704;50.534;6.442;2022-11-21T09:34:34;94311.59;;;3.27;100.00
62634;BME280;48704;50.534;6.442;2022-11-21T09:36:59;94314.28;;;3.46;100.00
62634;BME280;48704;50.534;6.442;2022-11-21T09:39:25;94315.16;;;3.70;100.00
62634;BME280;48704;50.534;6.442;2022-11-21T09:47:29;94312.13;;;4.34;100.00
62634;BME280;48704;50.534;6.442;2022-11-21T09:50:04;94314.88;;;4.34;100.00
62634;BME280;48704;50.534;6.442;2022-11-21T09:52:43;94304.00;;;4.07;100.00
62634;BME280;48704;50.534;6.442;2022-11-21T09:57:46;94297.59;;;4.24;100.00
62634;BME280;48704;50.534;6.442;2022-11-21T10:00:18;94297.84;;;4.59;100.00
62634;BME280;48704;50.534;6.442;2022-11-21T10:02:44;94288.63;;;5.01;100.00
62634;BME280;48704;50.534;6.442;2022-11-21T10:05:13;94295.53;;;5.64;100.00
62634;BME280;48704;50.534;6.442;2022-11-21T10:07:39;94297.00;;;5.89;100.00
62634;BME280;48704;50.534;6.442;2022-11-21T10:16:22;94278.00;;;4.46;100.00
62634;BME280;48704;50.534;6.442;2022-11-21T10:26:52;94273.56;;;3.59;100.00
62634;BME280;48704;50.534;6.442;2022-11-21T10:29:26;94263.63;;;3.94;100.00
62634;BME280;48704;50.534;6.442;2022-11-21T10:31:58;94247.25;;;4.62;100.00
62634;BME280;48704;50.534;6.442;2022-11-21T10:34:29;94253.66;;;4.68;100.00
62634;BME280;48704;50.534;6.442;2022-11-21T10:36:59;94249.03;;;5.04;100.00
62634;BME280;48704;50.534;6.442;2022-11-21T10:39:40;94240.88;;;5.54;100.00
62634;BME280;48704;50.534;6.442;2022-11-21T10:44:53;94233.25;;;5.49;100.00
62634;BME280;48704;50.534;6.442;2022-11-21T10:47:37;94230.56;;;6.39;100.00
62634;BME280;48704;50.534;6.442;2022-11-21T10:53:30;94219.19;;;6.78;100.00
62634;BME280;48704;50.534;6.442;2022-11-21T10:56:19;94208.97;;;7.35;100.00
62634;BME280;48704;50.534;6.442;2022-11-21T10:58:51;94209.16;;;6.80;100.00
62634;BME280;48704;50.534;6.442;2022-11-21T11:01:35;94214.66;;;6.54;100.00
62634;BME280;48704;50.534;6.442;2022-11-21T11:06:30;94204.31;;;7.21;100.00
62634;BME280;48704;50.534;6.442;2022-11-21T11:08:55;94216.16;;;6.15;100.00
62634;BME280;48704;50.534;6.442;2022-11-21T11:11:21;94200.41;;;6.41;100.00
62634;BME280;48704;50.534;6.442;2022-11-21T11:14:11;94198.88;;;6.40;100.00
62634;BME280;48704;50.534;6.442;2022-11-21T11:16:42;94195.84;;;5.68;100.00
62634;BME280;48704;50.534;6.442;2022-11-21T11:29:21;94180.88;;;5.40;100.00
62634;BME280;48704;50.534;6.442;2022-11-21T11:34:39;94178.22;;;5.01;100.00
62634;BME280;48704;50.534;6.442;2022-11-21T11:37:33;94170.91;;;5.62;100.00
62634;BME280;48704;50.534;6.442;2022-11-21T11:40:29;94165.50;;;5.88;100.00
62634;BME280;48704;50.534;6.442;2022-11-21T11:43:12;94162.94;;;6.20;100.00
62634;BME280;48704;50.534;6.442;2022-11-21T11:48:56;94145.38;;;6.23;100.00
62634;BME280;48704;50.534;6.442;2022-11-21T11:51:41;94143.16;;;6.99;100.00
62634;BME280;48704;50.534;6.442;2022-11-21T11:54:21;94130.75;;;5.47;100.00
62634;BME280;48704;50.534;6.442;2022-11-21T11:56:48;94123.00;;;5.86;100.00
62634;BME280;48704;50.534;6.442;2022-11-21T11:59:21;94117.81;;;6.34;100.00
62634;BME280;48704;50.534;6.442;2022-11-21T12:01:59;94103.19;;;6.80;100.00
62634;BME280;48704;50.534;6.442;2022-11-21T12:04:28;94098.78;;;6.62;100.00
62634;BME280;48704;50.534;6.442;2022-11-21T12:07:01;94094.63;;;6.52;100.00
62634;BME280;48704;50.534;6.442;2022-11-21T12:12:01;94091.84;;;6.26;100.00
62634;BME280;48704;50.534;6.442;2022-11-21T12:20:35;94072.53;;;5.15;100.00
62634;BME280;48704;50.534;6.442;2022-11-21T12:23:09;94059.41;;;5.10;100.00
62634;BME280;48704;50.534;6.442;2022-11-21T12:25:44;94054.75;;;5.36;100.00
62634;BME280;48704;50.534;6.442;2022-11-21T12:28:30;94051.16;;;5.30;100.00
62634;BME280;48704;50.534;6.442;2022-11-21T12:33:26;94048.75;;;5.03;100.00
62634;BME280;48704;50.534;6.442;2022-11-21T12:36:20;94035.41;;;5.36;100.00
62634;BME280;48704;50.534;6.442;2022-11-21T12:39:37;94033.03;;;5.44;100.00
62634;BME280;48704;50.534;6.442;2022-11-21T12:42:13;94032.81;;;5.48;100.00
62634;BME280;48704;50.534;6.442;2022-11-21T12:51:01;94026.09;;;5.14;100.00
62634;BME280;48704;50.534;6.442;2022-11-21T12:57:10;94017.72;;;5.08;100.00
62634;BME280;48704;50.534;6.442;2022-11-21T13:05:23;94007.69;;;4.76;100.00
62634;BME280;48704;50.534;6.442;2022-11-21T13:07:58;94010.84;;;4.54;100.00
62634;BME280;48704;50.534;6.442;2022-11-21T13:10:26;94009.69;;;4.60;100.00
62634;BME280;48704;50.534;6.442;2022-11-21T13:13:31;94004.94;;;4.76;100.00
62634;BME280;48704;50.534;6.442;2022-11-21T13:15:59;93999.44;;;4.61;100.00
62634;BME280;48704;50.534;6.442;2022-11-21T13:18:34;94006.09;;;4.54;100.00
62634;BME280;48704;50.534;6.442;2022-11-21T13:21:00;93990.97;;;4.64;100.00
62634;BME280;48704;50.534;6.442;2022-11-21T13:23:39;93981.72;;;4.67;100.00
62634;BME280;48704;50.534;6.442;2022-11-21T13:28:49;93977.56;;;4.57;100.00
62634;BME280;48704;50.534;6.442;2022-11-21T13:31:31;93972.50;;;4.70;100.00
62634;BME280;48704;50.534;6.442;2022-11-21T13:33:57;93959.09;;;4.63;100.00
62634;BME280;48704;50.534;6.442;2022-11-21T13:47:26;93928.06;;;4.33;100.00
62634;BME280;48704;50.534;6.442;2022-11-21T13:50:30;93892.72;;;4.52;100.00
62634;BME280;48704;50.534;6.442;2022-11-21T13:55:44;93879.22;;;4.54;100.00
62634;BME280;48704;50.534;6.442;2022-11-21T14:01:42;93858.47;;;4.59;100.00
62634;BME280;48704;50.534;6.442;2022-11-21T14:04:52;93869.28;;;4.42;100.00
62634;BME280;48704;50.534;6.442;2022-11-21T14:07:29;93882.34;;;4.47;100.00
62634;BME280;48704;50.534;6.442;2022-11-21T14:10:00;93868.38;;;4.51;100.00
62634;BME280;48704;50.534;6.442;2022-11-21T14:12:38;93865.66;;;4.36;100.00
62634;BME280;48704;50.534;6.442;2022-11-21T14:17:50;93860.19;;;4.21;100.00
62634;BME280;48704;50.534;6.442;2022-11-21T14:20:25;93850.50;;;4.11;100.00
62634;BME280;48704;50.534;6.442;2022-11-21T14:23:11;93843.41;;;4.05;100.00
62634;BME280;48704;50.534;6.442;2022-11-21T14:28:07;93829.53;;;4.34;100.00
62634;BME280;48704;50.534;6.442;2022-11-21T14:30:36;93821.19;;;4.28;100.00
62634;BME280;48704;50.534;6.442;2022-11-21T14:33:26;93812.47;;;4.15;100.00
62634;BME280;48704;50.534;6.442;2022-11-21T14:38:48;93792.41;;;4.15;100.00
62634;BME280;48704;50.534;6.442;2022-11-21T14:41:24;93784.97;;;4.21;100.00
62634;BME280;48704;50.534;6.442;2022-11-21T14:44:01;93774.31;;;3.93;100.00
62634;BME280;48704;50.534;6.442;2022-11-21T14:46:37;93769.09;;;3.95;100.00
62634;BME280;48704;50.534;6.442;2022-11-21T14:49:23;93760.28;;;3.91;100.00
62634;BME280;48704;50.534;6.442;2022-11-21T14:54:25;93735.34;;;4.00;100.00
62634;BME280;48704;50.534;6.442;2022-11-21T14:57:00;93733.44;;;4.07;100.00
62634;BME280;48704;50.534;6.442;2022-11-21T14:59:30;93731.91;;;4.06;100.00
62634;BME280;48704;50.534;6.442;2022-11-21T15:01:59;93735.00;;;4.13;100.00